Thunder radar more information blitzortung!


Radar de pluja more information rain snow radar


Visita la nostra xarxa de llocs de meteo:

Template documentation
and downloads

And another site



No particular awareness of the weather is required.    There are no Weather-warnings

Pagina Historial Weather Underground text

Diari Resum Juliol 26, 2017 Unitats:  Imperial    Mètric   Tant
« Previous Dia
SegĂźent Dia »
Diari Setmana Mensual Anual Personalitzada
  Maxima: Minima: Media:
Temperatura: TemperatureC °F 17.6 °F 23.9 °F
Punt de rosada: DewpointC °F 9.7 °F 13.9 °F
Humitat: Humidity % 38 % 54 %
Wind Speed: WindSpeedKMH mph 0.0 mph 6.3 mph
RĂ fegues de vent: WindSpeedGustKMH mph - -
Vent:- - SSE
Pression baro: PressurehPa in 1010.7 in -
Precipitacions: 0.0 in    
Historical Graphs
 
 
Dades de taula per Juliol 26, 2017
Temps Temperatura Punt de rosada Pression baro Vent Wind Speed RĂ fegues de vent Humitat Rainfall Rate (Hourly)
TemperatureC °F DewpointC °F PressurehPa in Calm     Humidity % HourlyPrecipMM in
00:04 22.3 °F 16.6 °F 1011.7 in NNE 3.7 mph 3.7 mph 70 % 0.0 in
00:05 19.6 °F 10.8 °F 1010.7 in NNE 4.8 mph 4.8 mph 57 % 0.0 in
00:09 22.3 °F 16.6 °F 1011.7 in NE 3.7 mph 3.7 mph 70 % 0.0 in
00:14 22.2 °F 16.7 °F 1011.7 in East 3.7 mph 3.7 mph 71 % 0.0 in
00:15 19.3 °F 10.3 °F 1010.7 in SW 1.6 mph 3.2 mph 56 % 0.0 in
00:19 22.2 °F 16.7 °F 1011.7 in NNE 4.7 mph 4.7 mph 71 % 0.0 in
00:20 22.2 °F 16.7 °F 1011.7 in NNE 3.9 mph 3.9 mph 71 % 0.0 in
00:25 22.1 °F 16.6 °F 1011.7 in NE 5.6 mph 5.6 mph 71 % 0.0 in
00:30 22.1 °F 16.6 °F 1011.7 in NE 7.4 mph 7.4 mph 71 % 0.0 in
00:35 22.0 °F 16.5 °F 1011.7 in NE 9.5 mph 9.5 mph 71 % 0.0 in
00:40 21.9 °F 16.6 °F 1011.7 in NNE 7.4 mph 7.4 mph 72 % 0.0 in
00:45 21.9 °F 16.6 °F 1011.7 in NNE 5.6 mph 5.6 mph 72 % 0.0 in
00:50 21.8 °F 16.5 °F 1011.7 in ENE 5.6 mph 5.6 mph 72 % 0.0 in
00:55 21.7 °F 16.4 °F 1011.7 in NNE 7.4 mph 7.4 mph 72 % 0.0 in
01:05 18.4 °F 10.0 °F 1012.8 in Calm   1.6 mph 58 % 0.0 in
01:15 18.3 °F 9.9 °F 1012.8 in Calm     58 % 0.0 in
01:25 18.2 °F 9.8 °F 1011.7 in Calm   1.6 mph 58 % 0.0 in
01:35 17.9 °F 9.8 °F 1011.7 in WSW 1.6 mph 3.2 mph 59 % 0.0 in
01:45 17.6 °F 9.7 °F 1011.7 in WSW 1.6 mph 1.6 mph 60 % 0.0 in
01:55 17.7 °F 9.8 °F 1012.8 in SW 1.6 mph 3.2 mph 60 % 0.0 in
02:05 17.6 °F 9.7 °F 1012.8 in Calm   1.6 mph 60 % 0.0 in
02:15 17.8 °F 9.9 °F 1012.8 in SW 1.6 mph 3.2 mph 60 % 0.0 in
02:25 17.8 °F 9.9 °F 1012.8 in SW 3.2 mph 3.2 mph 60 % 0.0 in
02:35 17.7 °F 10.1 °F 1012.8 in SW 1.6 mph 3.2 mph 61 % 0.0 in
02:45 17.7 °F 10.1 °F 1012.8 in SW 1.6 mph 1.6 mph 61 % 0.0 in
02:55 18.1 °F 10.4 °F 1013.8 in SW 1.6 mph 1.6 mph 61 % 0.0 in
03:05 18.8 °F 10.9 °F 1013.8 in WSW 1.6 mph 3.2 mph 60 % 0.0 in
03:15 19.7 °F 11.2 °F 1013.8 in Calm   4.8 mph 58 % 0.0 in
03:25 20.2 °F 11.1 °F 1012.8 in Calm   3.2 mph 56 % 0.0 in
03:35 20.2 °F 11.1 °F 1013.8 in Calm   3.2 mph 56 % 0.0 in
03:45 19.6 °F 10.6 °F 1013.8 in NE 3.2 mph 4.8 mph 56 % 0.0 in
03:55 19.7 °F 10.7 °F 1013.8 in ENE 3.2 mph 4.8 mph 56 % 0.0 in
04:05 19.6 °F 10.8 °F 1013.8 in NE 3.2 mph 6.4 mph 57 % 0.0 in
04:15 19.8 °F 10.8 °F 1013.8 in NNE 4.8 mph 6.4 mph 56 % 0.0 in
04:25 20.2 °F 10.9 °F 1013.8 in NE 3.2 mph 8.0 mph 55 % 0.0 in
04:35 20.4 °F 11.1 °F 1012.8 in ENE 3.2 mph 3.2 mph 55 % 0.0 in
04:45 20.8 °F 11.4 °F 1012.8 in SE 3.2 mph 3.2 mph 55 % 0.0 in
04:55 20.8 °F 11.2 °F 1013.8 in SSW 1.6 mph 4.8 mph 54 % 0.0 in
05:05 21.2 °F 11.5 °F 1013.8 in SSE 1.6 mph 3.2 mph 54 % 0.0 in
05:15 21.6 °F 11.6 °F 1013.8 in NNE 1.6 mph 3.2 mph 53 % 0.0 in
05:25 22.2 °F 12.2 °F 1013.8 in WNW 1.6 mph 3.2 mph 53 % 0.0 in
05:35 22.3 °F 11.9 °F 1013.8 in NE 1.6 mph 6.4 mph 52 % 0.0 in
10:34 22.3 °F 11.9 °F 1013.8 in NNE 1.9 mph 5.0 mph 52 % 0.0 in
10:39 22.8 °F 12.4 °F 1013.8 in North 5.8 mph 5.8 mph 52 % 0.0 in
10:44 22.4 °F 12.1 °F 1013.8 in NE 7.4 mph 7.4 mph 52 % 0.0 in
10:49 22.9 °F 12.5 °F 1013.8 in NNE 5.6 mph 5.6 mph 52 % 0.0 in
10:54 23.1 °F 12.1 °F 1013.8 in NNE 5.6 mph 5.6 mph 50 % 0.0 in
10:59 23.3 °F 12.3 °F 1013.8 in NW 4.2 mph   50 % 0.0 in
11:04 23.5 °F 12.5 °F 1013.8 in East 5.6 mph 5.6 mph 50 % 0.0 in
11:09 23.4 °F 12.4 °F 1013.8 in NNE 8.7 mph 8.7 mph 50 % 0.0 in
11:14 23.0 °F 11.7 °F 1013.8 in SSE 5.8 mph 5.8 mph 49 % 0.0 in
11:19 23.5 °F 11.8 °F 1013.8 in South 6.9 mph 6.9 mph 48 % 0.0 in
11:24 24.4 °F 13.0 °F 1013.8 in SSE 7.4 mph 7.4 mph 49 % 0.0 in
11:29 24.6 °F 12.8 °F 1013.8 in South 5.6 mph 5.6 mph 48 % 0.0 in
11:34 24.9 °F 13.4 °F 1013.8 in NNE 7.4 mph 7.4 mph 49 % 0.0 in
11:39 25.1 °F 13.3 °F 1013.8 in NNW 5.6 mph 5.6 mph 48 % 0.0 in
11:44 25.8 °F 13.9 °F 1013.8 in SW 6.4 mph 6.4 mph 48 % 0.0 in
11:49 25.9 °F 14.1 °F 1013.8 in SSW 7.4 mph 7.4 mph 48 % 0.0 in
11:54 26.1 °F 13.9 °F 1013.8 in SW 5.6 mph 6.1 mph 47 % 0.0 in
11:59 26.2 °F 14.0 °F 1013.8 in SW 9.3 mph 9.3 mph 47 % 0.0 in
12:04 26.2 °F 14.0 °F 1012.8 in SW 13.0 mph 13.0 mph 47 % 0.0 in
12:09 26.3 °F 14.1 °F 1012.8 in WSW 13.0 mph 13.0 mph 47 % 0.0 in
12:14 26.6 °F 14.1 °F 1012.8 in SE 5.6 mph 5.6 mph 46 % 0.0 in
12:19 26.8 °F 14.6 °F 1012.8 in East 6.1 mph 6.1 mph 47 % 0.0 in
12:24 27.2 °F 14.2 °F 1012.8 in SW 7.4 mph 7.4 mph 45 % 0.0 in
12:29 27.5 °F 14.5 °F 1012.8 in SW 5.0 mph 5.0 mph 45 % 0.0 in
12:34 27.6 °F 14.2 °F 1012.8 in WSW 10.3 mph 10.3 mph 44 % 0.0 in
12:39 27.4 °F 13.7 °F 1012.8 in SSE 9.3 mph 9.3 mph 43 % 0.0 in
12:44 27.7 °F 14.0 °F 1012.8 in SSE 7.4 mph 7.4 mph 43 % 0.0 in
12:49 27.7 °F 14.0 °F 1012.8 in ESE 7.4 mph 7.4 mph 43 % 0.0 in
12:54 27.8 °F 13.7 °F 1012.8 in SSW 5.8 mph 5.8 mph 42 % 0.0 in
12:59 27.9 °F 14.2 °F 1012.8 in SSW 13.0 mph 13.0 mph 43 % 0.0 in
13:04 28.6 °F 14.8 °F 1011.7 in East 5.0 mph 5.0 mph 43 % 0.0 in
13:05 28.3 °F 14.2 °F 1011.7 in SSE 7.4 mph 7.4 mph 42 % 0.0 in
13:10 27.8 °F 13.3 °F 1011.7 in SE 7.6 mph 7.6 mph 41 % 0.0 in
13:15 27.7 °F 13.6 °F 1011.7 in SW 3.7 mph 3.7 mph 42 % 0.0 in
13:20 28.6 °F 14.4 °F 1011.7 in SW 11.1 mph 11.1 mph 42 % 0.0 in
13:25 28.6 °F 14.4 °F 1011.7 in SW 7.4 mph 7.4 mph 42 % 0.0 in
13:30 29.0 °F 14.1 °F 1011.7 in SSE 7.4 mph 7.4 mph 40 % 0.0 in
13:37 29.4 °F 14.0 °F 1011.7 in SSW 5.0 mph 5.0 mph 39 % 0.0 in
13:42 29.3 °F 13.9 °F 1011.7 in West 5.6 mph 5.6 mph 39 % 0.0 in
13:47 29.4 °F 14.4 °F 1011.7 in SW 13.7 mph 13.7 mph 40 % 0.0 in
13:52 29.2 °F 14.2 °F 1011.7 in WSW 9.3 mph 9.3 mph 40 % 0.0 in
13:57 28.9 °F 13.9 °F 1011.7 in SSW 11.1 mph 11.1 mph 40 % 0.0 in
14:02 29.4 °F 14.0 °F 1011.7 in SE 5.6 mph 5.6 mph 39 % 0.0 in
14:07 29.7 °F 14.7 °F 1011.7 in SSW 14.0 mph 14.0 mph 40 % 0.0 in
14:08 29.7 °F 14.7 °F 1011.7 in WSW 14.8 mph 14.8 mph 40 % 0.0 in
14:13 29.8 °F 14.3 °F 1011.7 in SSW 9.3 mph 9.3 mph 39 % 0.0 in
14:18 29.8 °F 14.3 °F 1011.7 in NNW 5.6 mph 5.6 mph 39 % 0.0 in
14:19 29.7 °F 14.3 °F 1011.7 in WNW 5.6 mph 5.6 mph 39 % 0.0 in
14:24 29.5 °F 14.1 °F 1011.7 in NNE 3.7 mph 4.2 mph 39 % 0.0 in
14:29 29.9 °F 14.1 °F 1011.7 in South 9.3 mph 9.3 mph 38 % 0.0 in
14:34 29.8 °F 14.7 °F 1011.7 in South 9.3 mph 9.3 mph 40 % 0.0 in
14:39 29.0 °F 14.4 °F 1011.7 in SW 14.8 mph 14.8 mph 41 % 0.0 in
14:44 27.7 °F 14.0 °F 1011.7 in SSE 13.0 mph 13.0 mph 43 % 0.0 in
14:49 27.3 °F 14.3 °F 1011.7 in ESE 13.0 mph 13.0 mph 45 % 0.0 in
14:54 27.5 °F 14.5 °F 1011.7 in SSE 13.0 mph 13.0 mph 45 % 0.0 in
14:59 27.6 °F 14.9 °F 1011.7 in SE 9.3 mph 9.5 mph 46 % 0.0 in
15:04 27.9 °F 15.2 °F 1011.7 in SSE 11.1 mph 11.1 mph 46 % 0.0 in
15:09 27.3 °F 15.0 °F 1011.7 in South 9.3 mph 9.3 mph 47 % 0.0 in
15:14 27.5 °F 15.2 °F 1011.7 in SE 9.3 mph 9.3 mph 47 % 0.0 in
15:19 26.9 °F 14.9 °F 1011.7 in South 13.0 mph 13.0 mph 48 % 0.0 in
15:24 26.4 °F 14.8 °F 1011.7 in East 14.0 mph 14.0 mph 49 % 0.0 in
15:25 26.4 °F 14.8 °F 1011.7 in East 18.5 mph 18.5 mph 49 % 0.0 in
15:30 25.9 °F 14.7 °F 1011.7 in ESE 13.0 mph 13.0 mph 50 % 0.0 in
15:35 26.5 °F 15.2 °F 1011.7 in WSW 3.9 mph 3.9 mph 50 % 0.0 in
15:40 26.1 °F 15.2 °F 1011.7 in ESE 12.2 mph 12.2 mph 51 % 0.0 in
15:45 25.7 °F 14.8 °F 1011.7 in East 16.7 mph 16.7 mph 51 % 0.0 in
15:50 25.4 °F 14.8 °F 1011.7 in East 9.3 mph 9.3 mph 52 % 0.0 in
15:55 25.7 °F 15.1 °F 1011.7 in SW 13.0 mph 13.0 mph 52 % 0.0 in
16:00 25.9 °F 15.3 °F 1011.7 in East 5.8 mph 5.8 mph 52 % 0.0 in
16:05 26.3 °F 15.7 °F 1011.7 in SW 9.3 mph 9.3 mph 52 % 0.0 in
16:10 26.7 °F 15.7 °F 1011.7 in SSE 5.0 mph 5.3 mph 51 % 0.0 in
16:15 27.2 °F 15.9 °F 1011.7 in SW 9.3 mph 9.3 mph 50 % 0.0 in
16:20 28.3 °F 16.6 °F 1011.7 in SW 6.4 mph 6.4 mph 49 % 0.0 in
16:25 27.6 °F 15.9 °F 1011.7 in SSW 14.8 mph 14.8 mph 49 % 0.0 in
16:26 27.6 °F 15.9 °F 1011.7 in SW 14.8 mph 14.8 mph 49 % 0.0 in
16:31 27.7 °F 16.0 °F 1011.7 in SSE 9.3 mph 9.3 mph 49 % 0.0 in
16:36 28.4 °F 16.7 °F 1010.7 in SSW 7.4 mph 7.4 mph 49 % 0.0 in
16:41 28.9 °F 16.8 °F 1010.7 in SSE 5.6 mph 5.6 mph 48 % 0.0 in
16:46 29.2 °F 16.7 °F 1010.7 in WSW 5.8 mph 5.8 mph 47 % 0.0 in
16:51 29.3 °F 16.5 °F 1011.7 in West 9.3 mph 9.3 mph 46 % 0.0 in
16:56 29.8 °F 16.9 °F 1011.7 in SE 5.6 mph 5.6 mph 46 % 0.0 in
17:01 28.5 °F 16.1 °F 1011.7 in NW 14.8 mph 14.8 mph 47 % 0.0 in
17:06 28.7 °F 16.3 °F 1011.7 in South 7.4 mph 7.4 mph 47 % 0.0 in
17:11 27.9 °F 15.6 °F 1011.7 in NNE 9.5 mph 9.5 mph 47 % 0.0 in
17:16 28.1 °F 16.1 °F 1011.7 in SW 20.4 mph 20.4 mph 48 % 0.0 in
17:21 28.2 °F 16.2 °F 1011.7 in ESE 18.5 mph 18.5 mph 48 % 0.0 in
17:26 27.1 °F 15.4 °F 1011.7 in East 11.1 mph 11.1 mph 49 % 0.0 in
17:31 26.8 °F 15.8 °F 1011.7 in NNE 22.2 mph 22.2 mph 51 % 0.0 in
17:36 26.4 °F 15.4 °F 1011.7 in ESE 14.8 mph 15.6 mph 51 % 0.0 in
17:41 26.4 °F 15.8 °F 1011.7 in NNE 20.4 mph 20.4 mph 52 % 0.0 in
17:46 26.1 °F 15.5 °F 1011.7 in ESE 11.1 mph 11.4 mph 52 % 0.0 in
17:51 26.0 °F 15.4 °F 1011.7 in NNW 13.0 mph 13.0 mph 52 % 0.0 in
17:56 26.3 °F 15.9 °F 1011.7 in ESE 16.7 mph 16.7 mph 53 % 0.0 in
18:01 26.2 °F 15.9 °F 1011.7 in East 20.4 mph 20.4 mph 53 % 0.0 in
18:06 25.9 °F 15.6 °F 1011.7 in East 14.8 mph 14.8 mph 53 % 0.0 in
18:11 25.9 °F 15.6 °F 1011.7 in ENE 11.1 mph 11.1 mph 53 % 0.0 in
18:16 26.1 °F 15.8 °F 1011.7 in ESE 14.8 mph 14.8 mph 53 % 0.0 in
18:21 25.8 °F 15.5 °F 1011.7 in ESE 16.1 mph 16.1 mph 53 % 0.0 in
18:26 25.6 °F 15.3 °F 1011.7 in SE 14.0 mph 14.0 mph 53 % 0.0 in
18:31 25.7 °F 15.4 °F 1011.7 in ENE 14.8 mph 14.8 mph 53 % 0.0 in
18:36 25.7 °F 15.4 °F 1011.7 in NNE 10.3 mph 10.3 mph 53 % 0.0 in
18:41 25.8 °F 15.2 °F 1011.7 in ESE 9.3 mph 9.3 mph 52 % 0.0 in
18:46 25.7 °F 15.1 °F 1011.7 in ESE 13.0 mph 13.0 mph 52 % 0.0 in
18:51 25.8 °F 15.2 °F 1011.7 in ESE 9.3 mph 9.3 mph 52 % 0.0 in
18:56 25.8 °F 14.9 °F 1011.7 in ESE 11.1 mph 11.1 mph 51 % 0.0 in
19:01 25.6 °F 14.7 °F 1011.7 in ENE 9.3 mph 9.3 mph 51 % 0.0 in
19:06 25.4 °F 14.2 °F 1011.7 in East 11.1 mph 11.1 mph 50 % 0.0 in
19:11 25.5 °F 14.3 °F 1011.7 in ENE 9.3 mph 9.5 mph 50 % 0.0 in
19:15 21.6 °F 14.3 °F 1013.8 in Calm     63 % 0.0 in
19:16 25.6 °F 14.4 °F 1011.7 in SE 7.4 mph 7.4 mph 50 % 0.0 in
19:21 25.5 °F 14.3 °F 1010.7 in East 9.3 mph 9.3 mph 50 % 0.0 in
19:25 21.3 °F 14.2 °F 1013.8 in NE 1.6 mph 1.6 mph 64 % 0.0 in
19:26 25.4 °F 14.2 °F 1010.7 in ESE 12.6 mph 12.6 mph 50 % 0.0 in
19:31 25.3 °F 14.1 °F 1010.7 in ESE 9.5 mph 9.5 mph 50 % 0.0 in
19:35 21.1 °F 14.3 °F 1013.8 in Calm     65 % 0.0 in
19:36 25.3 °F 14.1 °F 1011.7 in East 13.0 mph 13.0 mph 50 % 0.0 in
19:41 25.2 °F 14.3 °F 1011.7 in ENE 14.8 mph 14.8 mph 51 % 0.0 in
19:45 21.1 °F 14.3 °F 1013.8 in Calm     65 % 0.0 in
19:46 25.1 °F 14.3 °F 1011.7 in ENE 9.3 mph 9.3 mph 51 % 0.0 in
19:51 25.0 °F 14.2 °F 1011.7 in ESE 16.7 mph 16.7 mph 51 % 0.0 in
19:55 21.0 °F 14.4 °F 1012.8 in Calm     66 % 0.0 in
19:56 25.0 °F 14.2 °F 1011.7 in ESE 9.3 mph 9.3 mph 51 % 0.0 in
20:01 24.9 °F 14.4 °F 1011.7 in East 9.7 mph 9.7 mph 52 % 0.0 in
20:05 20.9 °F 14.3 °F 1012.8 in Calm     66 % 0.0 in
20:06 24.7 °F 14.2 °F 1011.7 in ESE 14.8 mph 14.8 mph 52 % 0.0 in
20:11 24.7 °F 14.2 °F 1011.7 in East 8.7 mph 8.7 mph 52 % 0.0 in
20:15 20.9 °F 14.6 °F 1012.8 in Calm     67 % 0.0 in
20:16 24.7 °F 14.2 °F 1011.7 in ENE 9.3 mph 9.3 mph 52 % 0.0 in
20:21 24.6 °F 14.1 °F 1010.7 in ENE 9.7 mph 9.7 mph 52 % 0.0 in
20:25 20.9 °F 14.6 °F 1012.8 in Calm     67 % 0.0 in
20:26 24.5 °F 14.0 °F 1010.7 in ESE 9.3 mph 9.3 mph 52 % 0.0 in
20:31 24.4 °F 13.9 °F 1010.7 in ESE 9.3 mph 9.3 mph 52 % 0.0 in
20:35 20.8 °F 14.4 °F 1013.8 in Calm   3.2 mph 67 % 0.0 in
20:36 24.4 °F 13.9 °F 1011.7 in East 5.6 mph 5.6 mph 52 % 0.0 in
20:41 24.3 °F 13.8 °F 1011.7 in ESE 7.4 mph 7.4 mph 52 % 0.0 in
20:45 20.8 °F 14.4 °F 1013.8 in Calm   3.2 mph 67 % 0.0 in
20:46 24.2 °F 13.7 °F 1011.7 in SE 7.4 mph 7.4 mph 52 % 0.0 in
20:51 24.2 °F 13.7 °F 1011.7 in East 5.6 mph 5.6 mph 52 % 0.0 in
20:55 20.7 °F 14.3 °F 1013.8 in Calm     67 % 0.0 in
20:56 24.1 °F 13.6 °F 1011.7 in ENE 7.4 mph 7.4 mph 52 % 0.0 in
21:01 24.0 °F 13.6 °F 1011.7 in SE 6.1 mph 6.1 mph 52 % 0.0 in
21:05 20.4 °F 14.3 °F 1013.8 in Calm     68 % 0.0 in
21:06 24.0 °F 13.6 °F 1011.7 in Calm     52 % 0.0 in
21:11 23.9 °F 13.4 °F 1011.7 in WSW 3.7 mph 4.2 mph 52 % 0.0 in
21:15 20.2 °F 14.3 °F 1013.8 in Calm   3.2 mph 69 % 0.0 in
21:16 23.9 °F 13.7 °F 1011.7 in SW 3.9 mph 3.9 mph 53 % 0.0 in
21:21 23.8 °F 13.7 °F 1011.7 in Calm     53 % 0.0 in
21:25 20.0 °F 14.1 °F 1013.8 in Calm   3.2 mph 69 % 0.0 in
21:26 23.8 °F 13.7 °F 1011.7 in SW 3.7 mph 3.7 mph 53 % 0.0 in
21:31 23.7 °F 13.6 °F 1011.7 in Calm     53 % 0.0 in
21:35 19.7 °F 14.3 °F 1013.8 in Calm   3.2 mph 71 % 0.0 in
21:36 23.6 °F 13.4 °F 1012.8 in West 1.9 mph   53 % 0.0 in
21:41 23.5 °F 13.4 °F 1012.8 in East 2.6 mph   53 % 0.0 in
21:45 19.5 °F 13.9 °F 1013.8 in Calm     70 % 0.0 in
21:46 23.3 °F 13.2 °F 1012.8 in NE 1.9 mph   53 % 0.0 in
21:51 23.2 °F 13.1 °F 1012.8 in NE 2.6 mph 2.6 mph 53 % 0.0 in
21:55 19.4 °F 14.0 °F 1012.8 in Calm     71 % 0.0 in
21:56 23.2 °F 13.1 °F 1012.8 in NNE 1.9 mph 1.9 mph 53 % 0.0 in
22:01 23.1 °F 13.0 °F 1012.8 in NNE 3.7 mph 3.7 mph 53 % 0.0 in
22:05 19.4 °F 14.0 °F 1013.8 in SW 1.6 mph 1.6 mph 71 % 0.0 in
22:06 23.1 °F 13.0 °F 1013.8 in Calm     53 % 0.0 in
22:11 23.0 °F 12.6 °F 1013.8 in SE 3.7 mph 3.7 mph 52 % 0.0 in
22:15 19.3 °F 13.9 °F 1013.8 in SW 1.6 mph 3.2 mph 71 % 0.0 in
22:16 22.9 °F 12.8 °F 1013.8 in SW 2.3 mph   53 % 0.0 in
22:21 22.9 °F 12.8 °F 1013.8 in WSW 1.9 mph   53 % 0.0 in
22:25 19.2 °F 14.1 °F 1014.8 in Calm   1.6 mph 72 % 0.0 in
22:26 22.8 °F 12.7 °F 1013.8 in Calm     53 % 0.0 in
22:31 22.7 °F 12.6 °F 1013.8 in NW 1.9 mph 1.9 mph 53 % 0.0 in
22:35 19.1 °F 13.9 °F 1013.8 in Calm     72 % 0.0 in
22:36 22.7 °F 12.9 °F 1013.8 in North 1.9 mph 1.9 mph 54 % 0.0 in
22:41 22.7 °F 13.2 °F 1013.8 in Calm     55 % 0.0 in
22:45 19.1 °F 14.2 °F 1013.8 in SW 1.6 mph 1.6 mph 73 % 0.0 in
22:46 22.6 °F 13.4 °F 1013.8 in WSW 2.3 mph 2.3 mph 56 % 0.0 in
22:51 22.6 °F 13.4 °F 1013.8 in WSW 3.7 mph 3.7 mph 56 % 0.0 in
22:55 19.1 °F 14.2 °F 1013.8 in Calm     73 % 0.0 in
22:56 22.5 °F 13.6 °F 1013.8 in WSW 3.2 mph 3.2 mph 57 % 0.0 in
23:01 22.5 °F 13.6 °F 1013.8 in WSW 3.7 mph 3.7 mph 57 % 0.0 in
23:05 19.1 °F 14.2 °F 1013.8 in Calm     73 % 0.0 in
23:06 22.4 °F 13.7 °F 1013.8 in WNW 1.9 mph 1.9 mph 58 % 0.0 in
23:11 22.3 °F 13.9 °F 1013.8 in West 1.9 mph   59 % 0.0 in
23:15 19.0 °F 14.1 °F 1013.8 in Calm     73 % 0.0 in
23:16 22.2 °F 13.8 °F 1013.8 in SW 1.9 mph 1.9 mph 59 % 0.0 in
23:21 22.1 °F 13.9 °F 1013.8 in Calm     60 % 0.0 in
23:25 19.0 °F 14.3 °F 1013.8 in SW 1.6 mph 3.2 mph 74 % 0.0 in
23:26 22.1 °F 13.9 °F 1013.8 in WSW 3.7 mph 3.7 mph 60 % 0.0 in
23:31 22.1 °F 13.9 °F 1013.8 in West 5.0 mph 5.0 mph 60 % 0.0 in
23:35 18.9 °F 14.4 °F 1013.8 in Calm   3.2 mph 75 % 0.0 in
23:36 22.1 °F 14.2 °F 1013.8 in WSW 2.3 mph 2.3 mph 61 % 0.0 in
23:41 22.0 °F 14.1 °F 1013.8 in West 1.9 mph   61 % 0.0 in
23:45 18.9 °F 14.4 °F 1013.8 in Calm   1.6 mph 75 % 0.0 in
23:46 21.9 °F 14.3 °F 1013.8 in Calm     62 % 0.0 in
23:51 21.9 °F 14.3 °F 1013.8 in Calm     62 % 0.0 in
23:55 18.9 °F 14.6 °F 1013.8 in Calm   1.6 mph 76 % 0.0 in
23:56 21.8 °F 14.4 °F 1013.8 in Calm     63 % 0.0 in
Meteo Sesrovires
Elogis d' Weather Underground - 1.5 mb

Guio original per  Jim McMurry - jmcmurry@mwt.net Adaptat per a la plantilla per  Wim van der Kuil - Leuven-Template.eu

Trobareu la nostra informacio del temps tambe a:

Weather Underground

AWEKAS